Time;durP1;ratioP1;P1;durP2;ratioP2;P2;SDS_P1;SDS_P2;PMS_P1;PMS_P2;Temp;Humidity;BMP_temperature;BMP_pressure;BME280_temperature;BME280_humidity;BME280_pressure;Samples;Min_cycle;Max_cycle;Signal;HPM_P1;HPM_P2
2022/10/29 00:01:13;;;;;;;;;;;;;;;20.70;60.00;102043.16;7404244;19;1964;-63
2022/10/29 00:03:42;;;;;;;;;;;;;;;20.65;60.78;102049.72;7400025;19;1444;-63
2022/10/29 00:06:12;;;;;;;;;;;;;;;20.63;58.12;102043.59;7401163;19;1337;-63
2022/10/29 00:08:41;;;;;;;;;;;;;;;20.66;60.41;102048.75;7402983;19;1313;-63
2022/10/29 00:11:11;;;;;;;;;;;;;;;20.41;55.80;102043.44;7407060;19;1431;-63
2022/10/29 00:13:39;;;;;;;;;;;;;;;20.52;56.57;102048.88;7407972;19;1544;-61
2022/10/29 00:16:09;;;;;;;;;;;;;;;20.51;58.41;102049.84;7408392;19;1299;-63
2022/10/29 00:18:39;;;;;;;;;;;;;;;20.51;59.86;102047.16;7407484;19;1517;-62
2022/10/29 00:21:09;;;;;;;;;;;;;;;20.50;60.16;102055.34;7408211;19;1865;-65
2022/10/29 00:23:37;;;;;;;;;;;;;;;20.54;58.54;102046.94;7407172;19;1581;-64
2022/10/29 00:26:06;;;;;;;;;;;;;;;20.59;59.90;102050.19;7406855;19;1506;-64
2022/10/29 00:28:34;;;;;;;;;;;;;;;20.61;60.25;102053.63;7406558;19;1611;-64
2022/10/29 00:31:06;;;;;;;;;;;;;;;20.64;59.99;102056.06;7408537;19;1408;-63
2022/10/29 00:33:35;;;;;;;;;;;;;;;20.65;60.41;102048.84;7405951;19;1663;-63
2022/10/29 00:36:06;;;;;;;;;;;;;;;20.62;60.64;102054.47;7408131;19;1687;-62
2022/10/29 00:38:36;;;;;;;;;;;;;;;20.60;60.71;102053.72;7408161;19;1449;-62
2022/10/29 00:41:05;;;;;;;;;;;;;;;20.60;60.97;102053.72;7407301;19;1840;-62
2022/10/29 00:43:36;;;;;;;;;;;;;;;20.57;60.79;102054.78;7406013;19;1583;-62
2022/10/29 00:46:06;;;;;;;;;;;;;;;20.58;60.77;102063.69;7404736;19;1000;-62
2022/10/29 00:48:36;;;;;;;;;;;;;;;20.54;60.92;102049.63;7408620;19;1663;-62
2022/10/29 00:51:08;;;;;;;;;;;;;;;20.50;60.88;102050.81;7408103;19;1758;-62
2022/10/29 00:53:39;;;;;;;;;;;;;;;20.51;60.66;102039.09;7407378;19;1581;-62
2022/10/29 00:56:08;;;;;;;;;;;;;;;20.48;60.92;102038.50;7406091;19;1479;-61
2022/10/29 00:58:37;;;;;;;;;;;;;;;20.53;60.78;102058.69;7407004;19;1643;-62
2022/10/29 01:01:05;;;;;;;;;;;;;;;20.49;60.84;102032.97;7407437;19;1845;-62
2022/10/29 01:03:33;;;;;;;;;;;;;;;20.85;60.36;102037.47;7407873;19;1690;-62
2022/10/29 01:06:02;;;;;;;;;;;;;;;21.46;58.61;102031.00;7407360;19;1482;-62
2022/10/29 01:08:33;;;;;;;;;;;;;;;21.80;57.93;102036.41;7403988;19;1758;-62
2022/10/29 01:11:06;;;;;;;;;;;;;;;21.72;58.13;102034.31;7406506;19;1596;-62
2022/10/29 01:13:39;;;;;;;;;;;;;;;21.32;58.96;102032.06;7406709;19;1619;-62
2022/10/29 01:16:12;;;;;;;;;;;;;;;21.34;59.09;102027.41;7407267;19;793;-62
2022/10/29 01:18:44;;;;;;;;;;;;;;;21.61;58.73;102013.66;7407659;19;1004;-62
2022/10/29 01:21:33;;;;;;;;;;;;;;;21.84;57.69;102025.28;7406572;19;1871;-62
2022/10/29 01:24:16;;;;;;;;;;;;;;;21.90;57.98;102025.75;7406456;19;1059;-62
2022/10/29 01:27:01;;;;;;;;;;;;;;;21.52;58.59;102026.97;7407296;19;1361;-62
2022/10/29 01:29:38;;;;;;;;;;;;;;;21.32;59.48;102020.44;7406485;19;1004;-62
2022/10/29 01:32:11;;;;;;;;;;;;;;;21.67;58.51;102020.38;7405394;19;1327;-61
2022/10/29 01:34:44;;;;;;;;;;;;;;;21.92;57.65;102011.16;7406236;19;1781;-61
2022/10/29 01:37:16;;;;;;;;;;;;;;;22.20;57.01;102015.19;7406221;19;1537;-62
2022/10/29 01:39:46;;;;;;;;;;;;;;;21.96;57.75;102017.16;7405916;19;1606;-62
2022/10/29 01:42:19;;;;;;;;;;;;;;;21.62;58.71;102019.88;7404408;19;1855;-62
2022/10/29 01:44:49;;;;;;;;;;;;;;;21.37;59.39;102008.34;7404984;19;1538;-62
2022/10/29 01:47:21;;;;;;;;;;;;;;;21.55;58.91;102002.53;7403557;19;1664;-62
2022/10/29 01:49:52;;;;;;;;;;;;;;;21.81;57.88;102003.97;7404226;19;1541;-62
2022/10/29 01:52:22;;;;;;;;;;;;;;;22.13;57.63;102010.41;7403177;19;1508;-62
2022/10/29 01:54:51;;;;;;;;;;;;;;;22.12;57.13;102017.63;7405917;19;1532;-62
2022/10/29 01:57:30;;;;;;;;;;;;;;;21.75;58.00;102004.47;7404946;19;1536;-62
2022/10/29 02:00:00;;;;;;;;;;;;;;;21.43;59.00;102005.22;7402524;19;1533;-62
2022/10/29 02:02:37;;;;;;;;;;;;;;;21.41;59.09;101985.59;7397989;19;1844;-62
2022/10/29 02:05:13;;;;;;;;;;;;;;;21.85;58.14;102002.75;7404006;19;1356;-62
2022/10/29 02:07:46;;;;;;;;;;;;;;;21.85;57.80;101994.66;7404596;19;1468;-62
2022/10/29 02:10:20;;;;;;;;;;;;;;;21.61;58.52;101996.66;7404739;19;1619;-62
2022/10/29 02:12:49;;;;;;;;;;;;;;;21.40;58.99;102000.03;7399650;19;1353;-62
2022/10/29 02:15:20;;;;;;;;;;;;;;;21.51;58.98;101993.84;7403820;19;1603;-62
2022/10/29 02:17:52;;;;;;;;;;;;;;;21.82;58.09;101994.91;7405574;19;1536;-62
2022/10/29 02:20:20;;;;;;;;;;;;;;;21.84;58.00;102003.75;7403890;19;1470;-62
2022/10/29 02:22:48;;;;;;;;;;;;;;;21.58;58.57;101986.97;7402231;19;1874;-62
2022/10/29 02:25:17;;;;;;;;;;;;;;;21.38;59.19;101979.59;7402432;19;1423;-62
2022/10/29 02:27:45;;;;;;;;;;;;;;;21.67;58.33;101992.63;7404396;19;1530;-62
2022/10/29 02:30:13;;;;;;;;;;;;;;;21.82;57.73;101989.50;7409741;19;1506;-62
2022/10/29 02:32:42;;;;;;;;;;;;;;;21.88;57.91;101981.94;7412071;19;1552;-62
2022/10/29 02:35:13;;;;;;;;;;;;;;;21.64;58.24;101988.31;7407829;19;1521;-62
2022/10/29 02:37:41;;;;;;;;;;;;;;;21.44;58.79;101987.22;7412005;19;1336;-62
2022/10/29 02:40:10;;;;;;;;;;;;;;;21.47;58.78;101983.41;7410020;19;1357;-62
2022/10/29 02:42:39;;;;;;;;;;;;;;;21.83;57.62;101980.47;7409710;19;1863;-62
2022/10/29 02:45:07;;;;;;;;;;;;;;;21.95;57.71;101993.94;7412569;19;1427;-62
2022/10/29 02:47:36;;;;;;;;;;;;;;;21.66;58.18;101980.97;7406908;19;1752;-62
2022/10/29 02:50:04;;;;;;;;;;;;;;;21.43;58.88;101983.69;7410056;19;1703;-62
2022/10/29 02:52:35;;;;;;;;;;;;;;;21.47;58.78;101984.28;7411961;19;1481;-62
2022/10/29 02:55:03;;;;;;;;;;;;;;;21.88;57.94;101981.94;7411389;19;1587;-62
2022/10/29 02:57:31;;;;;;;;;;;;;;;22.05;57.43;101987.66;7410351;19;1529;-62
2022/10/29 03:00:00;;;;;;;;;;;;;;;21.94;57.69;101992.19;7404727;19;1615;-62
2022/10/29 03:02:28;;;;;;;;;;;;;;;21.65;58.51;101992.72;7406899;19;1854;-62
2022/10/29 03:04:56;;;;;;;;;;;;;;;21.47;59.21;101987.00;7410725;19;1597;-62
2022/10/29 03:07:25;;;;;;;;;;;;;;;21.43;59.30;101989.06;7411229;19;1320;-62
2022/10/29 03:09:55;;;;;;;;;;;;;;;21.89;58.16;101989.88;7404898;19;1552;-62
2022/10/29 03:12:24;;;;;;;;;;;;;;;22.07;57.28;101987.53;7409080;19;1659;-62
2022/10/29 03:14:52;;;;;;;;;;;;;;;21.67;58.81;101993.47;7406558;19;1438;-62
2022/10/29 03:17:20;;;;;;;;;;;;;;;21.49;59.25;101986.84;7408645;19;1566;-62
2022/10/29 03:19:49;;;;;;;;;;;;;;;21.44;59.34;101974.59;7405966;19;1450;-62
2022/10/29 03:22:17;;;;;;;;;;;;;;;21.51;59.43;101983.06;7408185;19;1854;-63
2022/10/29 03:24:45;;;;;;;;;;;;;;;21.65;59.31;101981.97;7409896;19;1458;-63
2022/10/29 03:27:16;;;;;;;;;;;;;;;21.92;58.41;101988.78;7409977;19;1548;-62
2022/10/29 03:29:44;;;;;;;;;;;;;;;22.02;58.17;101982.53;7408795;19;1542;-62
2022/10/29 03:32:13;;;;;;;;;;;;;;;21.81;58.47;101998.59;7407696;19;1544;-63
2022/10/29 03:34:41;;;;;;;;;;;;;;;21.63;58.95;101968.63;7410175;19;1623;-63
2022/10/29 03:37:09;;;;;;;;;;;;;;;21.51;59.46;101963.38;7410494;19;1606;-63
2022/10/29 03:39:37;;;;;;;;;;;;;;;21.46;59.47;101952.97;7409312;19;1514;-63
2022/10/29 03:42:06;;;;;;;;;;;;;;;21.44;59.83;101963.84;7404804;19;1842;-63
2022/10/29 03:44:37;;;;;;;;;;;;;;;21.41;59.78;101966.78;7408597;19;1536;-63
2022/10/29 03:47:05;;;;;;;;;;;;;;;21.39;60.03;101976.81;7407791;19;1434;-62
2022/10/29 03:49:33;;;;;;;;;;;;;;;21.38;59.71;101969.69;7408356;19;1494;-63
2022/10/29 03:52:02;;;;;;;;;;;;;;;21.35;59.87;101964.56;7409343;19;1524;-63
2022/10/29 03:54:30;;;;;;;;;;;;;;;21.34;60.01;101968.22;7404339;19;1643;-62
2022/10/29 03:56:58;;;;;;;;;;;;;;;21.35;60.06;101974.47;7408949;19;1531;-62
2022/10/29 03:59:27;;;;;;;;;;;;;;;21.31;59.96;101986.44;7408217;19;1536;-62
2022/10/29 04:01:57;;;;;;;;;;;;;;;21.16;60.47;101972.38;7407604;19;1581;-62
2022/10/29 04:04:26;;;;;;;;;;;;;;;21.15;60.44;101962.56;7408512;19;1463;-62
2022/10/29 04:06:54;;;;;;;;;;;;;;;21.12;60.66;101969.06;7405685;19;1606;-62
2022/10/29 04:09:22;;;;;;;;;;;;;;;21.14;60.87;101966.25;7408992;19;1344;-62
2022/10/29 04:11:51;;;;;;;;;;;;;;;21.11;60.81;101972.75;7408883;19;1341;-62
2022/10/29 04:14:19;;;;;;;;;;;;;;;21.16;60.51;101975.06;7407038;19;1687;-62
2022/10/29 04:16:47;;;;;;;;;;;;;;;21.09;60.89;101973.81;7404674;19;1565;-62
2022/10/29 04:19:18;;;;;;;;;;;;;;;21.10;61.11;101972.84;7406243;19;1467;-62
2022/10/29 04:21:46;;;;;;;;;;;;;;;21.00;60.75;101972.72;7408471;19;1434;-62
2022/10/29 04:24:15;;;;;;;;;;;;;;;20.98;61.35;101972.81;7406207;19;1838;-62
2022/10/29 04:26:44;;;;;;;;;;;;;;;20.91;61.18;101966.22;7407220;19;1445;-62
2022/10/29 04:29:12;;;;;;;;;;;;;;;20.90;61.21;101963.66;7403724;19;1581;-62
2022/10/29 04:31:40;;;;;;;;;;;;;;;20.88;61.01;101962.91;7407818;19;1502;-62
2022/10/29 04:34:09;;;;;;;;;;;;;;;20.84;61.29;101973.03;7406285;19;1462;-62
2022/10/29 04:36:40;;;;;;;;;;;;;;;20.80;61.18;101966.19;7406378;19;1656;-62
2022/10/29 04:39:08;;;;;;;;;;;;;;;20.77;61.29;101961.91;7402698;19;1573;-62
2022/10/29 04:41:36;;;;;;;;;;;;;;;20.75;61.35;101966.56;7407720;19;1301;-62
2022/10/29 04:44:05;;;;;;;;;;;;;;;20.71;61.30;101962.41;7404729;19;1854;-62
2022/10/29 04:46:33;;;;;;;;;;;;;;;20.78;61.19;101968.16;7404614;19;1617;-61
2022/10/29 04:49:01;;;;;;;;;;;;;;;20.76;61.25;101967.41;7404645;19;1749;-62
2022/10/29 04:51:30;;;;;;;;;;;;;;;20.79;61.29;101967.16;7401398;19;1582;-62
2022/10/29 04:54:00;;;;;;;;;;;;;;;20.80;61.46;101958.97;7404939;19;1624;-63
2022/10/29 04:56:30;;;;;;;;;;;;;;;20.83;60.46;101971.31;7407534;19;1540;-64
2022/10/29 04:58:58;;;;;;;;;;;;;;;20.83;60.53;101965.94;7405298;19;1472;-69
2022/10/29 05:01:27;;;;;;;;;;;;;;;20.86;60.75;101971.09;7405331;19;1761;-67
2022/10/29 05:03:55;;;;;;;;;;;;;;;20.90;60.77;101977.09;7403080;19;1849;-64
2022/10/29 05:06:23;;;;;;;;;;;;;;;20.84;60.75;101970.34;7406739;19;1365;-66
2022/10/29 05:08:52;;;;;;;;;;;;;;;20.79;60.49;101965.34;7406935;19;1479;-66
2022/10/29 05:11:22;;;;;;;;;;;;;;;20.79;60.73;101989.53;7406973;19;1348;-65
2022/10/29 05:13:51;;;;;;;;;;;;;;;20.82;61.44;101972.31;7405536;19;1370;-62
2022/10/29 05:16:19;;;;;;;;;;;;;;;20.84;60.55;101970.34;7404439;19;1742;-68
2022/10/29 05:18:47;;;;;;;;;;;;;;;20.88;60.73;101966.44;7407221;19;1486;-67
2022/10/29 05:21:16;;;;;;;;;;;;;;;20.88;60.84;101989.81;7407453;19;1581;-73
2022/10/29 05:23:44;;;;;;;;;;;;;;;20.89;60.68;101978.94;7407304;19;1842;-69
2022/10/29 05:26:12;;;;;;;;;;;;;;;20.88;60.77;101977.22;7406130;19;1425;-70
2022/10/29 05:28:43;;;;;;;;;;;;;;;20.86;61.06;101987.22;7405759;19;1351;-67
2022/10/29 05:31:11;;;;;;;;;;;;;;;20.90;60.97;101983.31;7405503;19;1413;-65
2022/10/29 05:33:40;;;;;;;;;;;;;;;20.90;61.66;101985.16;7406244;19;1433;-68
2022/10/29 05:36:08;;;;;;;;;;;;;;;20.98;60.95;101986.28;7405106;19;1292;-69
2022/10/29 05:38:37;;;;;;;;;;;;;;;20.94;61.45;101982.09;7402776;19;1444;-67
2022/10/29 05:41:05;;;;;;;;;;;;;;;20.99;61.11;101985.31;7406719;19;1687;-68
2022/10/29 05:43:33;;;;;;;;;;;;;;;20.92;54.27;102000.19;7405856;19;1849;-64
2022/10/29 05:46:06;;;;;;;;;;;;;;;20.94;56.63;101987.50;7401761;19;1364;-66
2022/10/29 05:48:34;;;;;;;;;;;;;;;20.99;59.71;101996.06;7402487;19;1612;-66
2022/10/29 05:51:03;;;;;;;;;;;;;;;21.00;57.40;101991.53;7404791;19;1353;-64
2022/10/29 05:53:31;;;;;;;;;;;;;;;20.90;59.30;101991.38;7404752;19;1357;-64
2022/10/29 05:58:55;;;;;;;;;;;;;;;20.85;59.52;102004.34;7400520;19;1484;-64
2022/10/29 06:01:26;;;;;;;;;;;;;;;20.86;59.90;102006.91;7401036;19;1743;-63
2022/10/29 06:03:54;;;;;;;;;;;;;;;20.97;59.43;102008.78;7399257;19;1846;-64
2022/10/29 06:06:23;;;;;;;;;;;;;;;21.02;59.47;102006.56;7405544;19;1607;-64
2022/10/29 06:08:51;;;;;;;;;;;;;;;21.03;59.59;102018.22;7401652;19;1350;-65
2022/10/29 06:11:19;;;;;;;;;;;;;;;21.08;59.51;102015.16;7402829;19;1299;-64
2022/10/29 06:13:48;;;;;;;;;;;;;;;21.14;59.58;102014.69;7404963;19;1730;-64
2022/10/29 06:16:16;;;;;;;;;;;;;;;21.17;59.53;102009.03;7404667;19;1333;-66
2022/10/29 06:18:47;;;;;;;;;;;;;;;21.25;59.43;102001.25;7403917;19;1338;-66
2022/10/29 06:21:15;;;;;;;;;;;;;;;21.27;60.05;102015.44;7402560;19;1287;-68
2022/10/29 06:23:43;;;;;;;;;;;;;;;21.39;59.75;102019.00;7401170;19;1849;-67
2022/10/29 06:26:12;;;;;;;;;;;;;;;21.33;60.21;102008.69;7403262;19;1366;-64
2022/10/29 06:28:40;;;;;;;;;;;;;;;21.31;60.54;102000.78;7404966;19;1416;-66
2022/10/29 06:31:08;;;;;;;;;;;;;;;21.29;60.38;102008.09;7403955;19;1357;-67
2022/10/29 06:33:36;;;;;;;;;;;;;;;21.38;60.38;101999.28;7399591;19;1323;-67
2022/10/29 06:36:08;;;;;;;;;;;;;;;21.39;60.58;101997.47;7395314;19;1580;-68
2022/10/29 06:38:36;;;;;;;;;;;;;;;21.31;61.27;102003.47;7404222;19;1179;-69
2022/10/29 06:41:05;;;;;;;;;;;;;;;21.28;60.97;102001.00;7403554;19;1439;-68
2022/10/29 06:43:33;;;;;;;;;;;;;;;21.19;61.63;101994.50;7403786;19;1841;-68
2022/10/29 06:46:01;;;;;;;;;;;;;;;21.13;61.32;101986.03;7401157;19;1593;-67
2022/10/29 06:48:30;;;;;;;;;;;;;;;21.14;61.72;102009.28;7403728;19;1508;-67
2022/10/29 06:50:59;;;;;;;;;;;;;;;21.12;61.71;102005.88;7402792;19;1219;-67
2022/10/29 06:53:30;;;;;;;;;;;;;;;21.10;61.70;102014.06;7402981;19;1076;-69
2022/10/29 06:56:00;;;;;;;;;;;;;;;21.12;61.52;102011.25;7403923;19;1393;-73
2022/10/29 06:58:28;;;;;;;;;;;;;;;21.13;61.93;102015.63;7401051;19;1616;-70
2022/10/29 07:00:56;;;;;;;;;;;;;;;21.14;61.78;102015.53;7403732;19;1706;-71
2022/10/29 07:03:25;;;;;;;;;;;;;;;21.17;61.91;102003.66;7404571;19;1853;-72
2022/10/29 07:05:56;;;;;;;;;;;;;;;21.16;61.77;102010.03;7403280;19;1499;-71
2022/10/29 07:08:25;;;;;;;;;;;;;;;21.14;61.64;102001.22;7400409;19;1322;-70
2022/10/29 07:10:56;;;;;;;;;;;;;;;21.22;61.82;102017.63;7403348;19;1280;-68
2022/10/29 07:13:24;;;;;;;;;;;;;;;21.19;61.69;102021.41;7403238;19;1265;-68
2022/10/29 07:15:53;;;;;;;;;;;;;;;21.22;62.05;102017.63;7406731;19;1296;-73
2022/10/29 07:18:21;;;;;;;;;;;;;;;21.24;62.08;102015.66;7412547;19;1355;-73
2022/10/29 07:20:49;;;;;;;;;;;;;;;21.23;62.07;102019.34;7403706;19;1706;-70
2022/10/29 07:23:18;;;;;;;;;;;;;;;21.19;62.05;102023.25;7409840;19;1842;-71
2022/10/29 07:25:46;;;;;;;;;;;;;;;21.15;62.21;102009.19;7411231;19;1318;-72
2022/10/29 07:28:19;;;;;;;;;;;;;;;21.22;61.98;102015.78;7410243;19;1354;-73
2022/10/29 07:30:47;;;;;;;;;;;;;;;21.27;62.00;102034.28;7406467;19;1595;-73
2022/10/29 07:33:16;;;;;;;;;;;;;;;21.30;61.88;102025.94;7406749;19;1444;-69
2022/10/29 07:35:45;;;;;;;;;;;;;;;21.33;61.86;102028.41;7407810;19;1451;-71
2022/10/29 07:38:13;;;;;;;;;;;;;;;21.30;61.75;102011.66;7409761;19;1439;-69
2022/10/29 07:40:48;;;;;;;;;;;;;;;21.31;61.80;102014.22;7412041;19;1193;-67
2022/10/29 07:43:20;;;;;;;;;;;;;;;21.40;61.39;102021.56;7404938;19;1849;-69
2022/10/29 07:45:48;;;;;;;;;;;;;;;21.40;61.40;102013.47;7411400;19;1541;-69
2022/10/29 07:48:17;;;;;;;;;;;;;;;21.41;61.43;102004.44;7408028;19;1389;-68
2022/10/29 07:50:45;;;;;;;;;;;;;;;21.47;61.31;102013.03;7407954;19;1511;-68
2022/10/29 07:53:13;;;;;;;;;;;;;;;21.50;61.40;102015.47;7410876;19;987;-68
2022/10/29 07:55:42;;;;;;;;;;;;;;;21.43;61.29;102025.88;7404261;19;1699;-68
2022/10/29 07:58:12;;;;;;;;;;;;;;;21.42;61.34;102002.59;7408272;19;1480;-67
2022/10/29 08:00:43;;;;;;;;;;;;;;;21.49;61.26;102003.00;7406382;19;1532;-66
2022/10/29 08:03:13;;;;;;;;;;;;;;;21.48;61.54;102009.38;7406524;19;1195;-67
2022/10/29 08:05:42;;;;;;;;;;;;;;;21.43;61.58;101986.38;7402520;19;1843;-67
2022/10/29 08:08:10;;;;;;;;;;;;;;;21.46;61.44;102009.47;7410144;19;1633;-67
2022/10/29 08:10:38;;;;;;;;;;;;;;;21.42;61.33;101989.16;7410803;19;1055;-67
2022/10/29 08:13:07;;;;;;;;;;;;;;;21.45;61.48;101992.47;7409214;19;1692;-67
2022/10/29 08:15:36;;;;;;;;;;;;;;;21.45;61.32;101986.25;7409885;19;1573;-75
2022/10/29 08:18:10;;;;;;;;;;;;;;;21.48;61.68;101985.16;7403676;19;1382;-67
2022/10/29 08:20:39;;;;;;;;;;;;;;;21.51;61.50;101975.00;7407434;19;1580;-67
2022/10/29 08:23:07;;;;;;;;;;;;;;;21.47;61.82;101972.66;7408482;19;1540;-67
2022/10/29 08:25:40;;;;;;;;;;;;;;;21.42;61.82;101981.91;7405766;19;1846;-66
2022/10/29 08:28:09;;;;;;;;;;;;;;;21.47;61.93;101988.81;7403569;19;1363;-67
2022/10/29 08:30:37;;;;;;;;;;;;;;;21.47;61.75;101972.66;7407708;19;1541;-63
2022/10/29 08:33:09;;;;;;;;;;;;;;;21.49;62.54;101976.97;7408833;19;1621;-66
2022/10/29 08:35:37;;;;;;;;;;;;;;;21.49;62.15;101989.53;7403311;19;1503;-66
2022/10/29 08:38:06;;;;;;;;;;;;;;;21.52;61.85;101965.09;7406647;19;1638;-66
2022/10/29 08:40:40;;;;;;;;;;;;;;;21.53;61.83;101967.66;7401754;19;1665;-66
2022/10/29 08:43:26;;;;;;;;;;;;;;;21.52;61.73;101967.78;7408230;19;1546;-65
2022/10/29 08:45:55;;;;;;;;;;;;;;;21.50;61.71;101958.97;7404329;19;1830;-66
2022/10/29 08:48:36;;;;;;;;;;;;;;;21.52;61.59;101965.09;7403927;19;1609;-66
2022/10/29 08:51:09;;;;;;;;;;;;;;;21.51;61.33;101966.94;7407665;19;1228;-66
2022/10/29 08:53:40;;;;;;;;;;;;;;;21.49;61.63;101949.16;7408016;19;1509;-63
2022/10/29 08:56:12;;;;;;;;;;;;;;;21.54;61.56;101965.81;7408663;19;1620;-65
2022/10/29 08:58:45;;;;;;;;;;;;;;;21.55;61.75;101944.16;7405948;19;1490;-67
2022/10/29 09:01:14;;;;;;;;;;;;;;;21.59;61.87;101966.31;7406989;19;1163;-68
2022/10/29 09:03:44;;;;;;;;;;;;;;;21.47;61.88;101952.00;7407857;19;1858;-68
2022/10/29 09:06:15;;;;;;;;;;;;;;;21.41;62.15;101942.53;7408760;19;1754;-68
2022/10/29 09:08:54;;;;;;;;;;;;;;;21.40;62.29;101951.59;7407858;19;1734;-67
2022/10/29 09:11:41;;;;;;;;;;;;;;;21.41;62.43;101947.94;7407919;19;1652;-67
2022/10/29 09:14:18;;;;;;;;;;;;;;;21.39;62.15;101939.13;7408011;19;1761;-67
2022/10/29 09:16:51;;;;;;;;;;;;;;;21.39;62.51;101943.66;7405551;19;1550;-67
2022/10/29 09:19:36;;;;;;;;;;;;;;;21.42;62.06;101941.56;7406795;19;1719;-67
2022/10/29 09:22:16;;;;;;;;;;;;;;;21.43;62.19;101939.78;7406934;19;1589;-67
2022/10/29 09:24:47;;;;;;;;;;;;;;;21.36;62.17;101925.91;7403388;19;1890;-66
2022/10/29 09:27:17;;;;;;;;;;;;;;;21.40;62.07;101930.06;7405067;19;1280;-67
2022/10/29 09:29:54;;;;;;;;;;;;;;;21.31;61.20;101928.13;7407165;19;1284;-68
2022/10/29 09:32:24;;;;;;;;;;;;;;;21.22;57.09;101935.06;7406011;19;1737;-68
2022/10/29 09:34:54;;;;;;;;;;;;;;;21.31;60.09;101925.44;7406262;19;1550;-68
2022/10/29 09:37:27;;;;;;;;;;;;;;;21.24;56.98;101924.19;7404545;19;1374;-68
2022/10/29 09:39:58;;;;;;;;;;;;;;;21.17;51.81;101909.50;7404275;19;1703;-68
2022/10/29 09:42:33;;;;;;;;;;;;;;;21.12;51.25;101925.19;7405196;19;1616;-68
2022/10/29 09:45:02;;;;;;;;;;;;;;;21.11;49.94;101918.06;7404627;19;1849;-68
2022/10/29 09:47:37;;;;;;;;;;;;;;;21.15;54.82;101922.22;7406578;19;1685;-68
2022/10/29 09:50:12;;;;;;;;;;;;;;;21.12;52.49;101906.34;7402678;19;1699;-67
2022/10/29 09:52:56;;;;;;;;;;;;;;;21.01;49.27;101900.00;7060139;19;10000015;-67
2022/10/29 09:55:25;;;;;;;;;;;;;;;21.10;49.90;101908.31;7394019;19;1975;-67
2022/10/29 09:57:54;;;;;;;;;;;;;;;21.09;49.93;101915.53;7395131;19;1616;-67
2022/10/29 10:00:23;;;;;;;;;;;;;;;21.11;51.22;101910.00;7393279;19;1363;-67
2022/10/29 10:02:56;;;;;;;;;;;;;;;21.15;49.16;101920.41;7394316;19;1422;-68
2022/10/29 10:05:26;;;;;;;;;;;;;;;21.02;49.38;101904.38;7396194;19;1867;-68
2022/10/29 10:08:11;;;;;;;;;;;;;;;21.09;50.34;101906.56;7401803;19;877;-67
2022/10/29 10:10:51;;;;;;;;;;;;;;;21.06;50.75;101905.84;7399661;19;1546;-69
2022/10/29 10:13:20;;;;;;;;;;;;;;;21.04;51.04;101905.13;7399062;19;1538;-69
2022/10/29 10:15:51;;;;;;;;;;;;;;;21.00;51.43;101895.56;7403002;19;1623;-68
2022/10/29 10:18:21;;;;;;;;;;;;;;;21.05;50.71;101887.16;7405446;19;1490;-68
2022/10/29 10:20:50;;;;;;;;;;;;;;;21.08;52.12;101886.91;7359398;19;1751;-70
2022/10/29 10:23:26;;;;;;;;;;;;;;;21.02;49.96;101874.78;7336346;19;1243;-68
2022/10/29 10:25:55;;;;;;;;;;;;;;;21.08;51.24;101867.22;7397812;19;1853;-66
2022/10/29 10:28:24;;;;;;;;;;;;;;;21.19;51.56;101865.41;7401859;19;1329;-66
2022/10/29 10:31:07;;;;;;;;;;;;;;;21.21;51.07;101860.75;7399265;19;1402;-64
2022/10/29 10:33:37;;;;;;;;;;;;;;;21.20;52.32;101860.88;7400647;19;1132;-63
2022/10/29 10:36:07;;;;;;;;;;;;;;;21.28;51.13;101871.84;7402725;19;1442;-67
2022/10/29 10:38:46;;;;;;;;;;;;;;;21.21;50.32;101852.69;7400916;19;1339;-67
2022/10/29 10:41:15;;;;;;;;;;;;;;;21.31;51.28;101851.91;7401948;19;1220;-68
2022/10/29 10:43:45;;;;;;;;;;;;;;;21.29;51.34;101852.06;7403156;19;1348;-64
2022/10/29 10:46:15;;;;;;;;;;;;;;;21.34;50.89;101849.84;7402170;19;1857;-64
2022/10/29 10:48:44;;;;;;;;;;;;;;;21.33;50.04;101847.25;7405321;19;1082;-69
2022/10/29 10:51:17;;;;;;;;;;;;;;;21.35;51.04;101842.63;7409535;19;1621;-67
2022/10/29 10:53:48;;;;;;;;;;;;;;;21.39;50.26;101836.03;7410831;19;1576;-67
2022/10/29 10:56:19;;;;;;;;;;;;;;;21.41;50.55;101845.69;7414529;19;1470;-72
2022/10/29 10:58:51;;;;;;;;;;;;;;;21.31;49.14;101833.97;7410497;19;1798;-69
2022/10/29 11:01:23;;;;;;;;;;;;;;;21.33;50.04;101834.69;7410924;19;1656;-69
2022/10/29 11:03:57;;;;;;;;;;;;;;;21.24;49.52;101833.59;7412090;19;1664;-68
2022/10/29 11:06:28;;;;;;;;;;;;;;;21.29;50.01;101830.53;7408885;19;1881;-68
2022/10/29 11:09:05;;;;;;;;;;;;;;;21.38;50.51;101829.75;7411760;19;1529;-68
2022/10/29 11:11:36;;;;;;;;;;;;;;;21.43;50.46;101816.00;7413126;19;976;-68
2022/10/29 11:14:06;;;;;;;;;;;;;;;21.41;51.56;101815.22;7412799;19;968;-68
2022/10/29 11:16:40;;;;;;;;;;;;;;;21.37;52.39;101835.28;7410032;19;1757;-69
2022/10/29 11:19:14;;;;;;;;;;;;;;;21.44;52.84;101818.53;7409799;19;1474;-71
2022/10/29 11:21:47;;;;;;;;;;;;;;;21.30;54.70;101818.78;7413180;19;1470;-72
2022/10/29 11:24:21;;;;;;;;;;;;;;;21.34;54.34;101816.69;7411924;19;1208;-71
2022/10/29 11:26:55;;;;;;;;;;;;;;;21.25;54.06;101813.78;7410183;19;1849;-72
2022/10/29 11:29:28;;;;;;;;;;;;;;;21.24;53.83;101811.22;7413633;19;1082;-73
2022/10/29 11:32:02;;;;;;;;;;;;;;;21.28;55.63;101801.91;7411444;19;1423;-69
2022/10/29 11:34:38;;;;;;;;;;;;;;;21.37;54.85;101798.47;7410461;19;1569;-64
2022/10/29 11:37:13;;;;;;;;;;;;;;;21.31;54.99;101795.41;7411782;19;1125;-61
2022/10/29 11:39:49;;;;;;;;;;;;;;;21.34;54.96;101801.41;7410381;19;1046;-62
2022/10/29 11:42:17;;;;;;;;;;;;;;;21.29;55.44;101779.41;7411220;19;959;-72
2022/10/29 11:44:46;;;;;;;;;;;;;;;21.36;54.50;101794.06;7410225;19;1850;-76
2022/10/29 11:47:21;;;;;;;;;;;;;;;21.53;54.83;101781.94;7408025;19;1719;-79
2022/10/29 11:49:57;;;;;;;;;;;;;;;21.60;55.33;101774.19;7409054;19;1632;-63
2022/10/29 11:52:31;;;;;;;;;;;;;;;21.68;54.93;101787.03;7408767;19;1484;-76
2022/10/29 11:55:08;;;;;;;;;;;;;;;21.52;53.81;101776.69;7406271;19;1627;-78
2022/10/29 11:57:40;;;;;;;;;;;;;;;21.34;54.01;101752.13;7411205;19;1414;-70
2022/10/29 12:00:13;;;;;;;;;;;;;;;21.22;53.34;101770.13;7409205;19;1731;-77
2022/10/29 12:02:51;;;;;;;;;;;;;;;21.34;53.51;101769.13;7404474;19;1529;-74
2022/10/29 12:05:24;;;;;;;;;;;;;;;21.25;52.93;101759.13;7407841;19;1849;-73
2022/10/29 12:08:00;;;;;;;;;;;;;;;21.20;51.79;101767.56;7411821;19;1390;-73
2022/10/29 12:10:37;;;;;;;;;;;;;;;21.16;52.32;101749.97;7410149;19;1316;-73
2022/10/29 12:13:14;;;;;;;;;;;;;;;21.18;51.47;101755.22;7411576;19;1317;-72
2022/10/29 12:15:45;;;;;;;;;;;;;;;21.12;51.97;101747.66;7409896;19;1284;-73
2022/10/29 12:18:18;;;;;;;;;;;;;;;21.12;51.51;101753.03;7411488;19;989;-73
2022/10/29 12:20:49;;;;;;;;;;;;;;;21.14;51.32;101738.47;7410331;19;1624;-73
2022/10/29 12:23:25;;;;;;;;;;;;;;;21.31;52.92;101747.88;7410650;19;1523;-73
2022/10/29 12:26:03;;;;;;;;;;;;;;;21.26;51.07;101736.63;7404187;19;1839;-72
2022/10/29 12:28:38;;;;;;;;;;;;;;;21.29;52.92;101736.38;7409340;19;1471;-72
2022/10/29 12:31:15;;;;;;;;;;;;;;;21.21;50.78;101723.56;7409225;19;1565;-72
2022/10/29 12:33:47;;;;;;;;;;;;;;;21.24;51.94;101738.56;7408946;19;1648;-71
2022/10/29 12:36:19;;;;;;;;;;;;;;;21.24;52.24;101725.97;7409133;19;1430;-73
2022/10/29 12:38:50;;;;;;;;;;;;;;;21.30;50.75;101723.78;7409605;19;1676;-73
2022/10/29 12:41:23;;;;;;;;;;;;;;;21.19;48.34;101721.97;7403157;19;1243;-72
2022/10/29 12:43:52;;;;;;;;;;;;;;;21.15;48.58;101720.50;7406384;19;1608;-72
2022/10/29 12:46:27;;;;;;;;;;;;;;;21.15;48.39;101707.03;7405336;19;1851;-72
2022/10/29 12:49:00;;;;;;;;;;;;;;;21.12;48.72;101710.00;7406896;19;1454;-73
2022/10/29 12:51:35;;;;;;;;;;;;;;;21.18;50.72;101706.81;7404434;19;1646;-71
2022/10/29 12:54:16;;;;;;;;;;;;;;;21.28;50.85;101704.22;7405170;19;1372;-73
2022/10/29 12:56:47;;;;;;;;;;;;;;;21.41;51.69;101704.91;7405269;19;1419;-72
2022/10/29 12:59:32;;;;;;;;;;;;;;;21.51;51.35;101692.41;7401944;19;1547;-66
2022/10/29 13:02:15;;;;;;;;;;;;;;;21.50;51.73;101689.84;7408995;19;1462;-71
2022/10/29 13:05:05;;;;;;;;;;;;;;;21.33;52.26;101700.16;7411216;19;1553;-72
2022/10/29 13:07:36;;;;;;;;;;;;;;;21.38;52.72;101689.84;7410676;19;1287;-68
2022/10/29 13:10:19;;;;;;;;;;;;;;;21.30;51.79;101692.34;7412888;19;1495;-77